Airfield :
LOGIN :

Register | Disclaimer

   EN    FR    IT 

 










Legend :    VFR   Marginal VFR   IFR   Intensive IFR   Very Intensive IFR
Visi :
Ceiling :
>= 8 km
>= 3000ft
5 to 8 km
1000 to 3000 ft
1500m to 5 km
500 to 1000 ft
800 to 1500m
200 to 500 ft
< 800m
< 200 ft
Symbols :   Thunderstorms  Fog  Heavy snow  Heavy precipitations  Wind > 20 kt
SIGMETs :     Misc.  Thunderstorms  Icing  Turbulence  Mountain Waves  Volcanic Ashes






- Airport Elevation : 19 ft
- IATA code : VAA


EFVA - Vaasa

CURRENT METAR :
  • 141050Z AUTO VRB04KT 9999 FEW029 16/07 Q1012

EXPIRED METARs :
  • 141020Z AUTO 26004KT 200V320 9999 -SHRA BKN039 //////CB 16/08 Q1013
  • 140950Z AUTO 20005KT 150V250 9999 BKN039 15/07 Q1013
  • 140920Z AUTO 20004KT 150V300 9999 BKN033 16/08 Q1013
  • 140850Z AUTO 17004KT 110V230 CAVOK 15/07 Q1013
  • 140820Z AUTO 16006KT 130V200 9999 FEW025 15/08 Q1013
  • 140750Z AUTO 19007KT 9999 BKN021 14/07 Q1013
  • 140720Z AUTO 17004KT 110V210 9999 FEW021 14/09 Q1013
  • 140650Z AUTO 18006KT 140V220 9999 FEW018 13/08 Q1013
  • 140620Z AUTO 19006KT 160V240 9999 FEW018 13/09 Q1013

TAF TAF EFVA
Valid from the 14 at 09:00 until the 15 at 09:00 UTC


140821Z 1409/1509 16006KT 9999 SCT030
TEMPO 1409/1421 SCT030CB
PROB40
TEMPO 1410/1415 5000 TSRA
PROB30 1421/1504 1200 BCFG FEW030CB



MET'MAP, your aeronautical weather chart ! - Copyright ORBIFLY December 2007 - Disclaimer

ORBIFLY MET'MAP TEAM :

Programming & Development : Alexandra Zaïnal
Original concept : Baudouin d'Aumeries
Technical & hardware support : Manuel Goepfert
Assistance : Marc-Olivier Méhu




SOURCES & CREDITS :

   NOAA